createdAt,value
2023-07-03T00:00:46.140Z,55.40
2023-07-03T00:01:46.294Z,55.40
2023-07-03T00:02:46.322Z,55.38
2023-07-03T00:03:47.325Z,55.42
2023-07-03T00:04:47.658Z,55.39
2023-07-03T00:05:46.425Z,55.40
2023-07-03T00:06:47.410Z,55.35
2023-07-03T00:07:47.504Z,55.39
2023-07-03T00:08:47.510Z,55.36
2023-07-03T00:09:47.571Z,55.39
2023-07-03T00:10:47.624Z,55.39
2023-07-03T00:11:47.666Z,55.37
2023-07-03T00:12:47.697Z,55.37
2023-07-03T00:13:47.762Z,55.39
2023-07-03T00:14:47.793Z,55.38
2023-07-03T00:15:47.959Z,55.37
2023-07-03T00:16:46.960Z,55.37
2023-07-03T00:17:46.982Z,55.37
2023-07-03T00:18:47.965Z,55.41
2023-07-03T00:19:46.999Z,55.36
2023-07-03T00:20:48.079Z,55.38
2023-07-03T00:21:47.075Z,55.40
2023-07-03T00:22:48.150Z,55.43
2023-07-03T00:23:47.200Z,55.40
2023-07-03T00:24:48.208Z,55.40
2023-07-03T00:25:47.309Z,55.38
2023-07-03T00:26:48.348Z,55.39
2023-07-03T00:27:48.354Z,55.43
2023-07-03T00:28:48.409Z,55.38
2023-07-03T00:29:48.477Z,55.44
2023-07-03T00:30:48.512Z,55.42
2023-07-03T00:31:48.563Z,55.40
2023-07-03T00:32:48.616Z,55.41
2023-07-03T00:33:48.641Z,55.39
2023-07-03T00:34:47.685Z,55.40
2023-07-03T00:35:49.205Z,55.41
2023-07-03T00:36:48.784Z,55.41
2023-07-03T00:37:47.835Z,55.41
2023-07-03T00:38:48.885Z,55.43
2023-07-03T00:39:48.915Z,55.43
2023-07-03T00:40:47.968Z,55.43
2023-07-03T00:41:48.993Z,55.40
2023-07-03T00:42:49.054Z,55.42
2023-07-03T00:43:48.094Z,55.42
2023-07-03T00:44:49.119Z,55.39
2023-07-03T00:45:48.242Z,55.42
2023-07-03T00:46:49.290Z,55.42
2023-07-03T00:47:48.278Z,55.44
2023-07-03T00:48:49.321Z,55.40
2023-07-03T00:49:48.366Z,55.43
2023-07-03T00:50:48.414Z,55.43
2023-07-03T00:51:49.477Z,55.39
2023-07-03T00:52:48.637Z,55.42
2023-07-03T00:53:49.678Z,55.42
2023-07-03T00:54:49.673Z,55.42
2023-07-03T00:55:49.054Z,55.42
2023-07-03T00:56:48.700Z,55.45
2023-07-03T00:57:48.746Z,55.44
2023-07-03T00:58:48.858Z,55.42
2023-07-03T00:59:48.853Z,55.42
2023-07-03T01:00:49.948Z,55.46
2023-07-03T01:01:49.986Z,55.45
2023-07-03T01:02:49.011Z,55.44
2023-07-03T01:03:49.044Z,55.45
2023-07-03T01:04:49.173Z,55.41
2023-07-03T01:05:50.537Z,55.44
2023-07-03T01:06:49.188Z,55.44
2023-07-03T01:07:49.266Z,55.42
2023-07-03T01:08:49.291Z,55.44
2023-07-03T01:09:50.344Z,55.46
2023-07-03T01:10:50.423Z,55.44
2023-07-03T01:11:49.447Z,55.43
2023-07-03T01:12:50.506Z,55.44
2023-07-03T01:13:49.554Z,55.42
2023-07-03T01:14:49.625Z,55.39
2023-07-03T01:15:50.037Z,55.44
2023-07-03T01:16:50.699Z,55.42
2023-07-03T01:17:50.810Z,55.44
2023-07-03T01:18:50.796Z,55.45
2023-07-03T01:19:50.843Z,55.40
2023-07-03T01:20:49.881Z,55.44
2023-07-03T01:21:49.937Z,55.44
2023-07-03T01:22:51.021Z,55.43
2023-07-03T01:23:50.051Z,55.40
2023-07-03T01:24:50.103Z,55.42
2023-07-03T01:25:50.357Z,55.42
2023-07-03T01:26:51.210Z,55.43
2023-07-03T01:27:53.047Z,55.44
2023-07-03T01:28:51.278Z,55.41
2023-07-03T01:29:51.251Z,55.42
2023-07-03T01:30:50.287Z,55.40
2023-07-03T01:31:50.315Z,55.40
2023-07-03T01:32:51.369Z,55.42
2023-07-03T01:33:51.226Z,55.44
2023-07-03T01:34:51.241Z,55.46
2023-07-03T01:35:51.722Z,55.42
2023-07-03T01:36:51.194Z,55.41
2023-07-03T01:37:51.188Z,55.40
2023-07-03T01:38:50.210Z,55.42
2023-07-03T01:39:51.196Z,55.40
2023-07-03T01:40:50.209Z,55.42
2023-07-03T01:41:50.170Z,55.47
2023-07-03T01:42:51.165Z,55.45
2023-07-03T01:43:50.157Z,55.43
2023-07-03T01:44:51.162Z,55.45
2023-07-03T01:45:51.456Z,55.43
2023-07-03T01:46:50.155Z,55.41
2023-07-03T01:47:51.208Z,55.43
2023-07-03T01:48:51.120Z,55.41
2023-07-03T01:49:50.109Z,55.45
2023-07-03T01:50:51.133Z,55.46
2023-07-03T01:51:51.169Z,55.46
2023-07-03T01:52:50.220Z,55.44
2023-07-03T01:53:50.255Z,55.42
2023-07-03T01:54:51.312Z,55.41
2023-07-03T01:55:51.699Z,55.44
2023-07-03T01:56:50.405Z,55.45
2023-07-03T01:57:50.485Z,55.43
2023-07-03T01:58:50.548Z,55.47
2023-07-03T01:59:51.560Z,55.47
2023-07-03T02:00:51.639Z,55.45
2023-07-03T02:01:50.682Z,55.47
2023-07-03T02:02:50.800Z,55.45
2023-07-03T02:03:51.763Z,55.42
2023-07-03T02:04:51.950Z,55.45
2023-07-03T02:05:52.116Z,55.42
2023-07-03T02:06:51.917Z,55.42
2023-07-03T02:07:50.969Z,55.42
2023-07-03T02:08:52.000Z,55.44
2023-07-03T02:09:52.084Z,55.46
2023-07-03T02:10:51.117Z,55.42
2023-07-03T02:11:51.131Z,55.42
2023-07-03T02:12:52.190Z,55.46
2023-07-03T02:13:51.248Z,55.49
2023-07-03T02:14:51.273Z,55.43
2023-07-03T02:15:51.598Z,55.42
2023-07-03T02:16:51.428Z,55.48
2023-07-03T02:17:52.521Z,55.45
2023-07-03T02:18:52.472Z,55.45
2023-07-03T02:19:51.520Z,55.47
2023-07-03T02:20:51.608Z,55.45
2023-07-03T02:21:51.633Z,55.47
2023-07-03T02:22:52.701Z,55.45
2023-07-03T02:23:51.723Z,55.44
2023-07-03T02:24:52.777Z,55.45
2023-07-03T02:25:53.055Z,55.46
2023-07-03T02:26:52.893Z,55.42
2023-07-03T02:27:52.936Z,55.45
2023-07-03T02:28:52.976Z,55.46
2023-07-03T02:29:53.029Z,55.46
2023-07-03T02:30:53.115Z,55.46
2023-07-03T02:31:52.117Z,55.47
2023-07-03T02:32:53.234Z,55.47
2023-07-03T02:33:53.256Z,55.43
2023-07-03T02:34:52.281Z,55.50
2023-07-03T02:35:52.646Z,55.47
2023-07-03T02:36:52.427Z,55.45
2023-07-03T02:37:53.420Z,55.46
2023-07-03T02:38:52.479Z,55.47
2023-07-03T02:39:52.546Z,55.51
2023-07-03T02:40:53.602Z,55.43
2023-07-03T02:41:53.648Z,55.43
2023-07-03T02:42:52.700Z,55.46
2023-07-03T02:43:53.748Z,55.42
2023-07-03T02:44:53.813Z,55.49
2023-07-03T02:45:54.131Z,55.46
2023-07-03T02:46:52.926Z,55.45
2023-07-03T02:47:52.995Z,55.45
2023-07-03T02:48:54.044Z,55.45
2023-07-03T02:49:54.122Z,55.44
2023-07-03T02:50:53.113Z,55.47
2023-07-03T02:51:53.190Z,55.46
2023-07-03T02:52:54.232Z,55.46
2023-07-03T02:53:53.292Z,55.45
2023-07-03T02:54:54.363Z,55.44
2023-07-03T02:55:53.487Z,55.44
2023-07-03T02:56:53.436Z,55.47
2023-07-03T02:57:54.502Z,55.46
2023-07-03T02:58:54.572Z,55.46
2023-07-03T02:59:53.590Z,55.43
2023-07-03T03:00:54.792Z,55.44
2023-07-03T03:01:53.687Z,55.44
2023-07-03T03:02:54.808Z,55.45
2023-07-03T03:03:54.970Z,55.47
2023-07-03T03:04:54.938Z,55.42
2023-07-03T03:05:53.957Z,55.46
2023-07-03T03:06:54.978Z,55.44
2023-07-03T03:07:54.044Z,55.47
2023-07-03T03:08:55.114Z,55.46
2023-07-03T03:09:54.160Z,55.45
2023-07-03T03:10:55.216Z,55.46
2023-07-03T03:11:54.253Z,55.43
2023-07-03T03:12:54.333Z,55.45
2023-07-03T03:13:55.407Z,55.47
2023-07-03T03:14:54.441Z,55.44
2023-07-03T03:15:54.646Z,55.46
2023-07-03T03:16:55.661Z,55.46
2023-07-03T03:17:55.700Z,55.45
2023-07-03T03:18:54.663Z,55.48
2023-07-03T03:19:54.722Z,55.46
2023-07-03T03:20:54.802Z,55.49
2023-07-03T03:21:54.888Z,55.46
2023-07-03T03:22:55.888Z,55.46
2023-07-03T03:23:55.935Z,55.48
2023-07-03T03:24:55.997Z,55.46
2023-07-03T03:25:56.042Z,55.46
2023-07-03T03:26:56.117Z,55.45
2023-07-03T03:27:55.187Z,55.47
2023-07-03T03:28:55.218Z,55.46
2023-07-03T03:29:56.291Z,55.45
2023-07-03T03:30:55.360Z,55.42
2023-07-03T03:31:55.412Z,55.45
2023-07-03T03:32:56.521Z,55.46
2023-07-03T03:33:56.529Z,55.45
2023-07-03T03:34:55.559Z,55.47
2023-07-03T03:35:55.628Z,55.47
2023-07-03T03:36:55.684Z,55.47
2023-07-03T03:37:55.752Z,55.47
2023-07-03T03:38:56.802Z,55.47
2023-07-03T03:39:55.874Z,55.47
2023-07-03T03:40:56.901Z,55.46
2023-07-03T03:41:56.967Z,55.47
2023-07-03T03:42:56.025Z,55.47
2023-07-03T03:43:57.072Z,55.46
2023-07-03T03:44:57.153Z,55.46
2023-07-03T03:45:56.209Z,55.46
2023-07-03T03:46:56.253Z,55.48
2023-07-03T03:47:57.344Z,55.47
2023-07-03T03:48:57.391Z,55.46
2023-07-03T03:49:57.397Z,55.51
2023-07-03T03:50:57.480Z,55.46
2023-07-03T03:51:57.535Z,55.51
2023-07-03T03:52:57.556Z,55.50
2023-07-03T03:53:57.639Z,55.46
2023-07-03T03:54:57.681Z,55.48
2023-07-03T03:55:56.729Z,55.48
2023-07-03T03:56:56.809Z,55.45
2023-07-03T03:57:56.844Z,55.47
2023-07-03T03:58:56.895Z,55.46
2023-07-03T03:59:56.961Z,55.47
2023-07-03T04:00:57.004Z,55.44
2023-07-03T04:01:58.113Z,55.46
2023-07-03T04:02:57.143Z,55.48
2023-07-03T04:03:58.219Z,55.48
2023-07-03T04:04:58.285Z,55.45
2023-07-03T04:05:58.315Z,55.48
2023-07-03T04:06:58.350Z,55.50
2023-07-03T04:07:57.391Z,55.46
2023-07-03T04:08:57.475Z,55.46
2023-07-03T04:09:57.566Z,55.47
2023-07-03T04:10:58.566Z,55.48
2023-07-03T04:11:58.623Z,55.48
2023-07-03T04:12:57.686Z,55.49
2023-07-03T04:13:57.762Z,55.45
2023-07-03T04:14:58.806Z,55.44
2023-07-03T04:15:58.110Z,55.45
2023-07-03T04:16:58.981Z,55.48
2023-07-03T04:17:58.995Z,55.47
2023-07-03T04:18:59.089Z,55.48
2023-07-03T04:19:59.086Z,55.48
2023-07-03T04:20:59.216Z,55.51
2023-07-03T04:21:58.208Z,55.48
2023-07-03T04:22:59.249Z,55.47
2023-07-03T04:23:58.295Z,55.45
2023-07-03T04:24:59.360Z,55.49
2023-07-03T04:25:58.441Z,55.48
2023-07-03T04:26:59.475Z,55.44
2023-07-03T04:27:59.530Z,55.47
2023-07-03T04:28:59.593Z,55.48
2023-07-03T04:29:58.638Z,55.47
2023-07-03T04:30:58.685Z,55.46
2023-07-03T04:31:58.836Z,55.42
2023-07-03T04:32:59.843Z,55.45
2023-07-03T04:33:59.826Z,55.48
2023-07-03T04:34:58.902Z,55.43
2023-07-03T04:35:58.962Z,55.46
2023-07-03T04:36:59.087Z,55.42
2023-07-03T04:37:59.079Z,55.46
2023-07-03T04:39:00.109Z,55.46
2023-07-03T04:39:59.199Z,55.45
2023-07-03T04:41:00.205Z,55.43
2023-07-03T04:42:00.282Z,55.46
2023-07-03T04:43:00.319Z,55.45
2023-07-03T04:43:59.521Z,55.45
2023-07-03T04:45:00.482Z,55.47
2023-07-03T04:46:00.484Z,55.47
2023-07-03T04:46:59.544Z,55.46
2023-07-03T04:47:59.576Z,55.47
2023-07-03T04:49:00.679Z,55.40
2023-07-03T04:50:00.716Z,55.45
2023-07-03T04:50:59.734Z,55.43
2023-07-03T04:52:00.811Z,55.46
2023-07-03T04:53:00.852Z,55.47
2023-07-03T04:54:00.925Z,55.40
2023-07-03T04:55:00.972Z,55.45
2023-07-03T04:56:01.026Z,55.46
2023-07-03T04:57:01.074Z,55.44
2023-07-03T04:58:01.151Z,55.46
2023-07-03T04:59:00.168Z,55.42
2023-07-03T05:00:01.244Z,55.42
2023-07-03T05:01:01.313Z,55.44
2023-07-03T05:02:01.347Z,55.43
2023-07-03T05:03:00.426Z,55.42
2023-07-03T05:04:01.443Z,55.43
2023-07-03T05:05:00.646Z,55.45
2023-07-03T05:06:01.531Z,55.43
2023-07-03T05:07:01.596Z,55.44
2023-07-03T05:08:01.658Z,55.41
2023-07-03T05:09:01.697Z,55.43
2023-07-03T05:10:00.761Z,55.42
2023-07-03T05:11:01.809Z,55.85
2023-07-03T05:12:00.858Z,55.64
2023-07-03T05:13:01.909Z,56.04
2023-07-03T05:14:00.969Z,55.74
2023-07-03T05:15:01.021Z,55.73
2023-07-03T05:16:01.103Z,55.59
2023-07-03T05:17:02.081Z,55.53
2023-07-03T05:18:01.175Z,55.48
2023-07-03T05:19:01.198Z,55.47
2023-07-03T05:20:01.252Z,55.46
2023-07-03T05:21:01.300Z,55.44
2023-07-03T05:22:02.366Z,55.46
2023-07-03T05:23:01.412Z,55.44
2023-07-03T05:24:01.448Z,55.44
2023-07-03T05:25:01.502Z,55.42
2023-07-03T05:26:01.543Z,55.43
2023-07-03T05:27:01.592Z,55.39
2023-07-03T05:28:02.633Z,55.41
2023-07-03T05:29:02.682Z,55.42
2023-07-03T05:30:01.782Z,55.40
2023-07-03T05:31:01.807Z,55.43
2023-07-03T05:32:01.854Z,55.38
2023-07-03T05:33:02.971Z,55.41
2023-07-03T05:34:01.923Z,55.42
2023-07-03T05:35:02.978Z,55.43
2023-07-03T05:36:02.043Z,55.41
2023-07-03T05:37:03.080Z,55.44
2023-07-03T05:38:02.157Z,55.43
2023-07-03T05:39:02.216Z,55.41
2023-07-03T05:40:03.246Z,55.43
2023-07-03T05:41:02.274Z,55.43
2023-07-03T05:42:03.341Z,55.43
2023-07-03T05:43:03.402Z,55.42
2023-07-03T05:44:03.442Z,55.44
2023-07-03T05:45:03.518Z,55.43
2023-07-03T05:46:02.598Z,55.42
2023-07-03T05:47:05.506Z,55.41
2023-07-03T05:48:02.632Z,55.42
2023-07-03T05:49:03.575Z,55.41
2023-07-03T05:50:02.595Z,55.43
2023-07-03T05:51:03.573Z,55.40
2023-07-03T05:52:03.567Z,55.43
2023-07-03T05:53:02.546Z,55.42
2023-07-03T05:54:02.551Z,55.40
2023-07-03T05:55:03.552Z,55.41
2023-07-03T05:56:02.547Z,55.43
2023-07-03T05:57:03.594Z,55.40
2023-07-03T05:58:03.629Z,55.44
2023-07-03T05:59:03.672Z,55.44
2023-07-03T06:00:03.725Z,55.42
2023-07-03T06:01:03.795Z,55.42
2023-07-03T06:02:03.865Z,55.39
2023-07-03T06:03:02.978Z,55.38
2023-07-03T06:04:03.982Z,55.40
2023-07-03T06:05:03.051Z,55.38
2023-07-03T06:06:04.036Z,55.39
2023-07-03T06:07:03.096Z,55.38
2023-07-03T06:08:03.149Z,55.37
2023-07-03T06:09:04.185Z,55.39
2023-07-03T06:10:04.207Z,55.36
2023-07-03T06:11:04.265Z,55.39
2023-07-03T06:12:04.308Z,55.38
2023-07-03T06:13:03.402Z,55.38
2023-07-03T06:14:04.427Z,55.38
2023-07-03T06:15:04.475Z,55.36
2023-07-03T06:16:04.518Z,55.36
2023-07-03T06:17:04.592Z,55.36
2023-07-03T06:18:04.666Z,55.36
2023-07-03T06:19:04.693Z,55.33
2023-07-03T06:20:04.760Z,55.34
2023-07-03T06:21:04.793Z,55.35
2023-07-03T06:22:03.895Z,55.36
2023-07-03T06:23:04.909Z,55.28
2023-07-03T06:24:04.956Z,55.33
2023-07-03T06:25:04.015Z,55.29
2023-07-03T06:26:05.072Z,55.35
2023-07-03T06:27:04.114Z,55.34
2023-07-03T06:28:04.137Z,55.34
2023-07-03T06:29:05.195Z,55.35
2023-07-03T06:30:04.249Z,55.34
2023-07-03T06:31:05.333Z,55.34
2023-07-03T06:32:04.340Z,55.34
2023-07-03T06:33:04.450Z,55.34
2023-07-03T06:34:04.575Z,55.31
2023-07-03T06:35:06.775Z,55.33
2023-07-03T06:36:05.515Z,55.30
2023-07-03T06:37:04.484Z,55.32
2023-07-03T06:38:04.493Z,55.34
2023-07-03T06:39:05.442Z,55.29
2023-07-03T06:40:04.437Z,55.34
2023-07-03T06:41:04.440Z,55.29
2023-07-03T06:42:05.436Z,55.28
2023-07-03T06:43:05.426Z,55.32
2023-07-03T06:44:04.455Z,55.29
2023-07-03T06:45:04.410Z,55.28
2023-07-03T06:46:05.396Z,55.27
2023-07-03T06:47:04.453Z,55.31
2023-07-03T06:48:04.447Z,55.26
2023-07-03T06:49:05.388Z,55.28
2023-07-03T06:50:05.502Z,55.23
2023-07-03T06:51:05.372Z,55.26
2023-07-03T06:52:04.365Z,55.26
2023-07-03T06:53:05.348Z,55.28
2023-07-03T06:54:04.376Z,55.26
2023-07-03T06:55:05.336Z,55.25
2023-07-03T06:56:04.334Z,55.23
2023-07-03T06:57:05.349Z,55.23
2023-07-03T06:58:04.309Z,55.22
2023-07-03T06:59:05.301Z,55.26
2023-07-03T07:00:05.309Z,55.22
2023-07-03T07:01:04.291Z,55.22
2023-07-03T07:02:05.370Z,55.22
2023-07-03T07:03:05.343Z,55.26
2023-07-03T07:04:05.379Z,55.23
2023-07-03T07:05:04.498Z,55.26
2023-07-03T07:06:04.411Z,55.22
2023-07-03T07:07:04.264Z,55.19
2023-07-03T07:08:05.303Z,55.18
2023-07-03T07:09:04.294Z,55.24
2023-07-03T07:10:05.431Z,55.19
2023-07-03T07:11:05.380Z,55.22
2023-07-03T07:12:05.416Z,55.19
2023-07-03T07:13:04.469Z,55.20
2023-07-03T07:14:04.489Z,55.20
2023-07-03T07:15:04.519Z,55.18
2023-07-03T07:16:05.551Z,55.20
2023-07-03T07:17:05.669Z,55.18
2023-07-03T07:18:05.647Z,55.18
2023-07-03T07:19:05.655Z,55.18
2023-07-03T07:20:05.703Z,55.16
2023-07-03T07:21:05.731Z,55.18
2023-07-03T07:22:06.017Z,55.15
2023-07-03T07:23:05.780Z,55.18
2023-07-03T07:24:04.825Z,55.16
2023-07-03T07:25:05.861Z,55.14
2023-07-03T07:26:04.880Z,55.17
2023-07-03T07:27:04.910Z,55.15
2023-07-03T07:28:04.954Z,55.16
2023-07-03T07:29:04.993Z,55.15
2023-07-03T07:30:06.026Z,55.18
2023-07-03T07:31:06.106Z,55.15
2023-07-03T07:32:05.095Z,55.10
2023-07-03T07:33:05.178Z,55.15
2023-07-03T07:34:05.161Z,55.13
2023-07-03T07:35:06.184Z,55.13
2023-07-03T07:36:05.208Z,55.13
2023-07-03T07:37:06.254Z,55.12
2023-07-03T07:38:05.391Z,55.13
2023-07-03T07:39:05.308Z,55.12
2023-07-03T07:40:05.334Z,55.12
2023-07-03T07:41:06.370Z,55.10
2023-07-03T07:42:05.383Z,55.09
2023-07-03T07:43:06.431Z,55.09
2023-07-03T07:44:05.467Z,55.10
2023-07-03T07:45:05.489Z,55.12
2023-07-03T07:46:06.578Z,55.07
2023-07-03T07:47:06.550Z,55.10
2023-07-03T07:48:05.636Z,55.07
2023-07-03T07:49:05.612Z,55.09
2023-07-03T07:50:06.641Z,55.06
2023-07-03T07:51:05.676Z,55.04
2023-07-03T07:52:06.716Z,55.07
2023-07-03T07:53:05.737Z,55.07
2023-07-03T07:54:05.878Z,55.07
2023-07-03T07:55:06.785Z,55.06
2023-07-03T07:56:06.793Z,55.04
2023-07-03T07:57:05.834Z,55.03
2023-07-03T07:58:06.882Z,55.07
2023-07-03T07:59:05.921Z,55.07
2023-07-03T08:00:05.932Z,54.99
2023-07-03T08:01:05.982Z,55.06
2023-07-03T08:02:06.043Z,55.03
2023-07-03T08:03:08.889Z,55.04
2023-07-03T08:04:07.137Z,55.03
2023-07-03T08:05:07.028Z,55.00
2023-07-03T08:06:06.003Z,54.97
2023-07-03T08:07:06.965Z,55.00
2023-07-03T08:08:06.968Z,54.97
2023-07-03T08:09:06.841Z,55.00
2023-07-03T08:10:06.983Z,55.00
2023-07-03T08:11:06.941Z,55.03
2023-07-03T08:12:05.953Z,55.04
2023-07-03T08:13:06.934Z,54.94
2023-07-03T08:14:06.920Z,55.00
2023-07-03T08:15:05.926Z,54.98
2023-07-03T08:16:05.960Z,54.99
2023-07-03T08:17:06.899Z,54.96
2023-07-03T08:18:06.011Z,54.96
2023-07-03T08:19:06.911Z,54.97
2023-07-03T08:20:05.887Z,54.95
2023-07-03T08:21:05.908Z,54.97
2023-07-03T08:22:06.871Z,54.97
2023-07-03T08:23:06.869Z,54.98
2023-07-03T08:24:07.615Z,54.93
2023-07-03T08:25:05.866Z,54.92
2023-07-03T08:26:05.971Z,54.95
2023-07-03T08:27:05.836Z,54.95
2023-07-03T08:28:06.837Z,54.98
2023-07-03T08:29:05.829Z,54.93
2023-07-03T08:30:05.829Z,54.92
2023-07-03T08:31:05.817Z,54.90
2023-07-03T08:32:05.902Z,54.91
2023-07-03T08:33:06.851Z,54.88
2023-07-03T08:34:05.841Z,54.92
2023-07-03T08:37:08.685Z,54.85
2023-07-03T08:38:05.801Z,54.90
2023-07-03T08:39:06.787Z,54.88
2023-07-03T08:40:06.796Z,54.85
2023-07-03T08:41:06.775Z,54.88
2023-07-03T08:42:06.856Z,54.87
2023-07-03T08:43:06.753Z,54.88
2023-07-03T08:44:06.722Z,54.88
2023-07-03T08:45:05.732Z,54.83
2023-07-03T08:46:06.785Z,54.82
2023-07-03T08:47:11.918Z,54.83
2023-07-03T08:48:06.723Z,54.80
2023-07-03T08:49:05.700Z,54.80
2023-07-03T08:50:08.759Z,54.81
2023-07-03T08:51:05.686Z,54.80
2023-07-03T08:52:06.679Z,54.81
2023-07-03T08:53:06.673Z,54.79
2023-07-03T08:54:05.656Z,54.77
2023-07-03T08:55:05.655Z,54.80
2023-07-03T08:56:05.669Z,54.77
2023-07-03T08:57:05.644Z,54.76
2023-07-03T08:58:05.790Z,54.74
2023-07-03T08:59:05.623Z,54.73
2023-07-03T09:00:06.615Z,54.73
2023-07-03T09:01:06.628Z,54.73
2023-07-03T09:02:06.628Z,54.74
2023-07-03T09:03:07.131Z,54.62
2023-07-03T09:04:06.588Z,54.73
2023-07-03T09:05:06.816Z,54.69
2023-07-03T09:06:05.588Z,54.63
2023-07-03T09:07:06.592Z,54.72
2023-07-03T09:08:05.575Z,54.68
2023-07-03T09:09:05.566Z,54.67
2023-07-03T09:10:05.568Z,54.61
2023-07-03T09:11:05.578Z,54.63
2023-07-03T09:12:05.552Z,54.59
2023-07-03T09:13:05.534Z,54.58
2023-07-03T09:14:05.711Z,54.62
2023-07-03T09:15:06.086Z,54.58
2023-07-03T09:16:05.518Z,54.62
2023-07-03T09:17:06.695Z,54.58
2023-07-03T09:18:05.571Z,54.58
2023-07-03T09:19:05.491Z,54.57
2023-07-03T09:20:06.486Z,54.59
2023-07-03T09:21:05.489Z,54.54
2023-07-03T09:22:06.470Z,54.55
2023-07-03T09:23:06.483Z,54.59
2023-07-03T09:24:06.473Z,54.59
2023-07-03T09:25:06.442Z,54.59
2023-07-03T09:26:05.908Z,54.57
2023-07-03T09:27:05.433Z,54.53
2023-07-03T09:28:07.090Z,54.52
2023-07-03T09:29:05.428Z,54.55
2023-07-03T09:30:06.530Z,54.55
2023-07-03T09:31:05.690Z,54.54
2023-07-03T09:32:05.470Z,54.46
2023-07-03T09:33:06.481Z,54.50
2023-07-03T09:34:05.383Z,54.48
2023-07-03T09:35:06.413Z,54.48
2023-07-03T09:36:05.387Z,54.49
2023-07-03T09:37:06.364Z,54.51
2023-07-03T09:38:06.358Z,54.54
2023-07-03T09:39:06.374Z,54.56
2023-07-03T09:40:06.382Z,54.52
2023-07-03T09:41:05.359Z,54.50
2023-07-03T09:42:05.445Z,54.47
2023-07-03T09:43:06.350Z,54.44
2023-07-03T09:44:06.344Z,54.43
2023-07-03T09:45:06.313Z,54.53
2023-07-03T09:46:05.467Z,54.47
2023-07-03T09:47:07.403Z,54.41
2023-07-03T09:48:05.466Z,54.49
2023-07-03T09:50:05.306Z,54.42
2023-07-03T09:51:07.708Z,54.43
2023-07-03T09:52:06.269Z,54.44
2023-07-03T09:53:09.041Z,54.42
2023-07-03T09:54:05.256Z,54.38
2023-07-03T09:55:05.265Z,54.42
2023-07-03T09:56:05.271Z,54.42
2023-07-03T09:57:06.244Z,54.44
2023-07-03T09:58:05.232Z,54.39
2023-07-03T09:59:06.274Z,54.40
2023-07-03T10:00:06.227Z,54.43
2023-07-03T10:01:06.288Z,54.45
2023-07-03T10:07:05.347Z,54.39
2023-07-03T10:08:05.317Z,54.42
2023-07-03T10:12:05.227Z,54.41
2023-07-03T10:13:05.176Z,54.35
2023-07-03T10:14:06.133Z,54.35
2023-07-03T10:15:06.127Z,54.42
2023-07-03T10:16:05.112Z,54.32
2023-07-03T10:17:06.144Z,54.39
2023-07-03T10:18:06.288Z,54.34
2023-07-03T10:19:06.096Z,54.37
2023-07-03T10:20:06.106Z,54.42
2023-07-03T10:21:05.085Z,54.30
2023-07-03T10:22:05.083Z,54.39
2023-07-03T10:23:05.080Z,54.32
2023-07-03T10:24:05.080Z,54.32
2023-07-03T10:25:06.052Z,54.24
2023-07-03T10:26:05.067Z,54.39
2023-07-03T10:27:06.065Z,54.29
2023-07-03T10:28:05.047Z,54.21
2023-07-03T10:29:06.038Z,54.26
2023-07-03T10:30:05.031Z,54.24
2023-07-03T10:31:06.141Z,54.19
2023-07-03T10:32:06.157Z,54.26
2023-07-03T10:33:06.060Z,54.24
2023-07-03T10:34:05.139Z,54.25
2023-07-03T10:35:05.997Z,54.21
2023-07-03T10:36:05.982Z,54.23
2023-07-03T10:37:05.985Z,54.22
2023-07-03T10:38:04.976Z,54.29
2023-07-03T10:39:04.964Z,54.27
2023-07-03T10:40:05.981Z,54.28
2023-07-03T10:41:05.984Z,54.26
2023-07-03T10:42:05.962Z,54.29
2023-07-03T10:43:04.949Z,54.26
2023-07-03T10:44:04.940Z,54.26
2023-07-03T10:45:04.916Z,54.22
2023-07-03T10:46:04.979Z,54.24
2023-07-03T10:47:04.986Z,54.24
2023-07-03T10:48:05.912Z,54.29
2023-07-03T10:49:05.901Z,54.30
2023-07-03T10:50:06.033Z,54.38
2023-07-03T10:51:05.904Z,54.30
2023-07-03T10:52:05.881Z,54.27
2023-07-03T10:53:05.863Z,54.18
2023-07-03T10:54:04.872Z,54.16
2023-07-03T10:55:05.851Z,54.17
2023-07-03T10:56:05.866Z,54.19
2023-07-03T10:57:05.874Z,54.22
2023-07-03T10:58:05.836Z,54.25
2023-07-03T10:59:05.846Z,54.21
2023-07-03T11:00:04.812Z,54.18
2023-07-03T11:01:05.855Z,54.20
2023-07-03T11:02:04.821Z,54.24
2023-07-03T11:03:04.902Z,54.16
2023-07-03T11:04:22.753Z,54.12
2023-07-03T11:05:05.778Z,54.12
2023-07-03T11:06:04.890Z,54.16
2023-07-03T11:07:05.779Z,54.12
2023-07-03T11:08:04.791Z,54.10
2023-07-03T11:09:05.751Z,54.12
2023-07-03T11:10:04.759Z,54.15
2023-07-03T11:11:05.754Z,54.26
2023-07-03T11:12:04.748Z,54.16
2023-07-03T11:13:05.729Z,54.12
2023-07-03T11:14:04.737Z,54.15
2023-07-03T11:15:04.713Z,54.21
2023-07-03T11:16:05.736Z,54.12
2023-07-03T11:17:04.726Z,54.12
2023-07-03T11:20:04.698Z,54.07
2023-07-03T11:23:04.725Z,54.13
2023-07-03T11:24:04.651Z,54.16
2023-07-03T11:25:05.660Z,54.17
2023-07-03T11:28:04.623Z,54.27
2023-07-03T11:29:04.630Z,54.19
2023-07-03T11:30:05.631Z,54.18
2023-07-03T11:31:04.654Z,54.17
2023-07-03T11:32:04.621Z,54.17
2023-07-03T11:33:04.628Z,54.21
2023-07-03T11:36:04.580Z,54.19
2023-07-03T11:37:05.005Z,54.16
2023-07-03T11:40:04.590Z,54.18
2023-07-03T11:41:05.945Z,54.13
2023-07-03T11:44:04.544Z,54.17
2023-07-03T11:45:05.513Z,54.19
2023-07-03T11:46:05.515Z,54.17
2023-07-03T11:47:05.536Z,54.13
2023-07-03T11:48:05.520Z,54.13
2023-07-03T11:49:04.493Z,54.15
2023-07-03T11:50:04.528Z,54.10
2023-07-03T11:51:05.472Z,54.09
2023-07-03T11:52:04.478Z,54.06
2023-07-03T11:53:04.453Z,54.04
2023-07-03T11:54:05.574Z,54.05
2023-07-03T11:55:04.457Z,54.03
2023-07-03T11:56:04.478Z,54.12
2023-07-03T11:57:05.437Z,54.17
2023-07-03T11:59:05.414Z,54.15
2023-07-03T12:00:05.426Z,54.13
2023-07-03T12:01:04.441Z,54.15
2023-07-03T12:02:05.418Z,54.03
2023-07-03T12:03:05.496Z,54.11
2023-07-03T12:04:04.499Z,54.08
2023-07-03T12:05:04.391Z,54.06
2023-07-03T12:06:04.372Z,54.15
2023-07-03T12:07:05.386Z,54.11
2023-07-03T12:08:05.384Z,54.13
2023-07-03T12:09:05.358Z,54.16
2023-07-03T12:10:04.364Z,54.03
2023-07-03T12:11:04.349Z,54.12
2023-07-03T12:12:05.346Z,54.14
2023-07-03T12:13:05.330Z,54.15
2023-07-03T12:14:04.333Z,54.17
2023-07-03T12:15:05.328Z,54.15
2023-07-03T12:16:05.318Z,54.10
2023-07-03T12:17:05.367Z,54.19
2023-07-03T12:18:05.322Z,54.17
2023-07-03T12:19:05.362Z,54.16
2023-07-03T12:20:07.322Z,54.09
2023-07-03T12:21:04.275Z,54.09
2023-07-03T12:22:05.267Z,54.21
2023-07-03T12:23:04.260Z,54.18
2023-07-03T12:24:05.258Z,54.23
2023-07-03T12:25:04.246Z,54.21
2023-07-03T12:26:05.268Z,54.17
2023-07-03T12:27:05.283Z,54.26
2023-07-03T12:28:05.225Z,54.28
2023-07-03T12:29:04.255Z,54.21
2023-07-03T12:30:05.276Z,54.27
2023-07-03T12:31:05.208Z,54.25
2023-07-03T12:32:05.203Z,54.17
2023-07-03T12:33:04.245Z,54.18
2023-07-03T12:34:04.174Z,54.16
2023-07-03T12:35:05.159Z,54.16
2023-07-03T12:36:04.163Z,54.15
2023-07-03T12:37:04.190Z,54.16
2023-07-03T12:38:04.161Z,54.17
2023-07-03T12:39:04.134Z,54.17
2023-07-03T12:40:04.115Z,54.12
2023-07-03T12:41:04.122Z,54.17
2023-07-03T12:42:05.187Z,54.12
2023-07-03T12:43:05.112Z,54.07
2023-07-03T12:44:08.596Z,54.05
2023-07-03T12:45:05.101Z,54.17
2023-07-03T12:46:04.097Z,54.10
2023-07-03T12:47:05.171Z,54.12
2023-07-03T12:48:04.224Z,54.13
2023-07-03T12:49:05.076Z,54.20
2023-07-03T12:50:04.060Z,54.22
2023-07-03T12:51:04.051Z,54.21
2023-07-03T12:52:04.097Z,54.14
2023-07-03T12:53:04.041Z,54.15
2023-07-03T12:54:05.035Z,54.15
2023-07-03T12:55:13.908Z,54.17
2023-07-03T12:56:05.025Z,54.17
2023-07-03T12:57:04.019Z,54.17
2023-07-03T12:58:04.026Z,54.12
2023-07-03T12:59:03.992Z,54.13
2023-07-03T13:00:03.996Z,54.19
2023-07-03T13:01:05.059Z,54.12
2023-07-03T13:02:05.024Z,54.10
2023-07-03T13:03:04.044Z,54.20
2023-07-03T13:04:03.964Z,54.15
2023-07-03T13:05:05.079Z,54.10
2023-07-03T13:06:05.083Z,54.12
2023-07-03T13:07:04.968Z,54.05
2023-07-03T13:08:04.934Z,54.08
2023-07-03T13:09:04.955Z,54.04
2023-07-03T13:10:04.053Z,54.12
2023-07-03T13:11:04.049Z,54.10
2023-07-03T13:12:05.099Z,54.18
2023-07-03T13:13:04.117Z,54.13
2023-07-03T13:14:04.170Z,54.15
2023-07-03T13:15:04.181Z,54.12
2023-07-03T13:16:05.206Z,54.15
2023-07-03T13:17:04.318Z,54.17